sensor_id;sensor_type;location;lat;lon;timestamp;P1;durP1;ratioP1;P2;durP2;ratioP2
70320;SDS011;61127;55.826;37.046;2023-06-22T00:00:58;12.60;;;6.27;;
70320;SDS011;61127;55.826;37.046;2023-06-22T00:03:24;12.00;;;5.85;;
70320;SDS011;61127;55.826;37.046;2023-06-22T00:05:51;11.05;;;5.97;;
70320;SDS011;61127;55.826;37.046;2023-06-22T00:08:18;11.57;;;6.30;;
70320;SDS011;61127;55.826;37.046;2023-06-22T00:10:45;12.02;;;6.20;;
70320;SDS011;61127;55.826;37.046;2023-06-22T00:13:12;11.93;;;6.53;;
70320;SDS011;61127;55.826;37.046;2023-06-22T00:15:41;11.93;;;6.07;;
70320;SDS011;61127;55.826;37.046;2023-06-22T00:18:08;13.88;;;6.95;;
70320;SDS011;61127;55.826;37.046;2023-06-22T00:20:35;10.63;;;7.15;;
70320;SDS011;61127;55.826;37.046;2023-06-22T00:23:07;11.82;;;6.35;;
70320;SDS011;61127;55.826;37.046;2023-06-22T00:25:34;11.17;;;6.30;;
70320;SDS011;61127;55.826;37.046;2023-06-22T00:28:01;13.30;;;6.40;;
70320;SDS011;61127;55.826;37.046;2023-06-22T00:30:28;12.80;;;6.75;;
70320;SDS011;61127;55.826;37.046;2023-06-22T00:32:56;16.33;;;7.47;;
70320;SDS011;61127;55.826;37.046;2023-06-22T00:35:24;15.80;;;6.95;;
70320;SDS011;61127;55.826;37.046;2023-06-22T00:37:58;16.13;;;7.00;;
70320;SDS011;61127;55.826;37.046;2023-06-22T00:40:31;12.52;;;6.60;;
70320;SDS011;61127;55.826;37.046;2023-06-22T00:42:58;14.02;;;7.32;;
70320;SDS011;61127;55.826;37.046;2023-06-22T00:45:25;12.05;;;6.93;;
70320;SDS011;61127;55.826;37.046;2023-06-22T00:47:52;12.13;;;6.57;;
70320;SDS011;61127;55.826;37.046;2023-06-22T00:50:23;13.13;;;7.00;;
70320;SDS011;61127;55.826;37.046;2023-06-22T00:52:56;11.45;;;6.47;;
70320;SDS011;61127;55.826;37.046;2023-06-22T00:55:24;10.82;;;6.50;;
70320;SDS011;61127;55.826;37.046;2023-06-22T00:58:10;12.00;;;7.35;;
70320;SDS011;61127;55.826;37.046;2023-06-22T01:00:37;17.17;;;7.78;;
70320;SDS011;61127;55.826;37.046;2023-06-22T01:03:04;14.57;;;7.53;;
70320;SDS011;61127;55.826;37.046;2023-06-22T01:05:35;14.43;;;8.02;;
70320;SDS011;61127;55.826;37.046;2023-06-22T01:08:23;18.17;;;7.88;;
70320;SDS011;61127;55.826;37.046;2023-06-22T01:11:16;14.98;;;7.38;;
70320;SDS011;61127;55.826;37.046;2023-06-22T01:16:41;17.80;;;7.37;;
70320;SDS011;61127;55.826;37.046;2023-06-22T01:19:14;14.73;;;7.85;;
70320;SDS011;61127;55.826;37.046;2023-06-22T01:22:02;13.75;;;7.60;;
70320;SDS011;61127;55.826;37.046;2023-06-22T01:29:49;15.80;;;7.07;;
70320;SDS011;61127;55.826;37.046;2023-06-22T01:32:18;13.52;;;7.20;;
70320;SDS011;61127;55.826;37.046;2023-06-22T01:34:45;16.33;;;7.25;;
70320;SDS011;61127;55.826;37.046;2023-06-22T01:37:13;17.27;;;7.90;;
70320;SDS011;61127;55.826;37.046;2023-06-22T01:39:40;17.77;;;7.65;;
70320;SDS011;61127;55.826;37.046;2023-06-22T01:42:06;15.93;;;8.90;;
70320;SDS011;61127;55.826;37.046;2023-06-22T01:44:32;13.52;;;7.13;;
70320;SDS011;61127;55.826;37.046;2023-06-22T01:47:00;13.75;;;7.32;;
70320;SDS011;61127;55.826;37.046;2023-06-22T01:49:26;13.73;;;6.93;;
70320;SDS011;61127;55.826;37.046;2023-06-22T01:51:53;12.55;;;6.78;;
70320;SDS011;61127;55.826;37.046;2023-06-22T01:54:20;14.07;;;6.90;;
70320;SDS011;61127;55.826;37.046;2023-06-22T01:56:46;10.38;;;6.20;;
70320;SDS011;61127;55.826;37.046;2023-06-22T01:59:18;12.20;;;5.97;;
70320;SDS011;61127;55.826;37.046;2023-06-22T02:02:19;9.18;;;5.60;;
70320;SDS011;61127;55.826;37.046;2023-06-22T02:05:03;10.93;;;6.13;;
70320;SDS011;61127;55.826;37.046;2023-06-22T02:07:33;11.00;;;6.30;;
70320;SDS011;61127;55.826;37.046;2023-06-22T02:10:03;14.70;;;6.00;;
70320;SDS011;61127;55.826;37.046;2023-06-22T02:12:32;15.35;;;7.43;;
70320;SDS011;61127;55.826;37.046;2023-06-22T02:15:00;13.25;;;6.95;;
70320;SDS011;61127;55.826;37.046;2023-06-22T02:17:29;13.63;;;7.53;;
70320;SDS011;61127;55.826;37.046;2023-06-22T02:20:01;19.07;;;7.10;;
70320;SDS011;61127;55.826;37.046;2023-06-22T02:22:35;12.80;;;7.40;;
70320;SDS011;61127;55.826;37.046;2023-06-22T02:25:02;13.52;;;7.00;;
70320;SDS011;61127;55.826;37.046;2023-06-22T02:27:30;18.52;;;7.65;;
70320;SDS011;61127;55.826;37.046;2023-06-22T02:29:56;15.20;;;7.03;;
70320;SDS011;61127;55.826;37.046;2023-06-22T02:32:22;13.05;;;7.30;;
70320;SDS011;61127;55.826;37.046;2023-06-22T02:35:08;11.82;;;6.80;;
70320;SDS011;61127;55.826;37.046;2023-06-22T02:37:38;12.23;;;6.90;;
70320;SDS011;61127;55.826;37.046;2023-06-22T02:40:09;12.90;;;7.18;;
70320;SDS011;61127;55.826;37.046;2023-06-22T02:42:39;16.00;;;7.50;;
70320;SDS011;61127;55.826;37.046;2023-06-22T02:45:05;12.32;;;6.32;;
70320;SDS011;61127;55.826;37.046;2023-06-22T02:47:31;13.60;;;6.95;;
70320;SDS011;61127;55.826;37.046;2023-06-22T02:49:57;12.48;;;7.10;;
70320;SDS011;61127;55.826;37.046;2023-06-22T02:52:24;13.15;;;7.00;;
70320;SDS011;61127;55.826;37.046;2023-06-22T02:54:50;14.60;;;7.00;;
70320;SDS011;61127;55.826;37.046;2023-06-22T02:57:35;14.20;;;6.78;;
70320;SDS011;61127;55.826;37.046;2023-06-22T03:00:02;12.65;;;6.95;;
70320;SDS011;61127;55.826;37.046;2023-06-22T03:02:43;13.52;;;6.82;;
70320;SDS011;61127;55.826;37.046;2023-06-22T03:05:10;17.87;;;7.47;;
70320;SDS011;61127;55.826;37.046;2023-06-22T03:07:39;16.90;;;7.03;;
70320;SDS011;61127;55.826;37.046;2023-06-22T03:10:09;12.77;;;6.72;;
70320;SDS011;61127;55.826;37.046;2023-06-22T03:12:39;14.85;;;7.10;;
70320;SDS011;61127;55.826;37.046;2023-06-22T03:15:06;14.45;;;7.10;;
70320;SDS011;61127;55.826;37.046;2023-06-22T03:17:34;13.97;;;6.63;;
70320;SDS011;61127;55.826;37.046;2023-06-22T03:20:04;12.40;;;6.82;;
70320;SDS011;61127;55.826;37.046;2023-06-22T03:22:35;14.75;;;6.35;;
70320;SDS011;61127;55.826;37.046;2023-06-22T03:25:05;11.10;;;6.25;;
70320;SDS011;61127;55.826;37.046;2023-06-22T03:27:38;12.85;;;5.82;;
70320;SDS011;61127;55.826;37.046;2023-06-22T03:30:08;11.73;;;6.07;;
70320;SDS011;61127;55.826;37.046;2023-06-22T03:32:54;13.25;;;5.65;;
70320;SDS011;61127;55.826;37.046;2023-06-22T03:35:20;13.57;;;6.10;;
70320;SDS011;61127;55.826;37.046;2023-06-22T03:37:48;9.52;;;5.25;;
70320;SDS011;61127;55.826;37.046;2023-06-22T03:40:13;12.82;;;5.65;;
70320;SDS011;61127;55.826;37.046;2023-06-22T03:42:40;10.27;;;5.50;;
70320;SDS011;61127;55.826;37.046;2023-06-22T03:45:08;13.15;;;5.38;;
70320;SDS011;61127;55.826;37.046;2023-06-22T03:47:35;10.68;;;5.53;;
70320;SDS011;61127;55.826;37.046;2023-06-22T03:50:01;11.45;;;5.82;;
70320;SDS011;61127;55.826;37.046;2023-06-22T03:52:33;11.00;;;5.20;;
70320;SDS011;61127;55.826;37.046;2023-06-22T03:54:59;11.90;;;5.33;;
70320;SDS011;61127;55.826;37.046;2023-06-22T03:57:24;9.82;;;5.25;;
70320;SDS011;61127;55.826;37.046;2023-06-22T03:59:51;9.05;;;5.20;;
70320;SDS011;61127;55.826;37.046;2023-06-22T04:02:17;11.82;;;5.50;;
70320;SDS011;61127;55.826;37.046;2023-06-22T04:04:43;10.80;;;5.00;;
70320;SDS011;61127;55.826;37.046;2023-06-22T04:07:09;11.45;;;5.22;;
70320;SDS011;61127;55.826;37.046;2023-06-22T04:09:35;10.20;;;4.82;;
70320;SDS011;61127;55.826;37.046;2023-06-22T04:12:01;8.77;;;4.63;;
70320;SDS011;61127;55.826;37.046;2023-06-22T04:14:27;9.35;;;4.70;;
70320;SDS011;61127;55.826;37.046;2023-06-22T04:16:53;8.68;;;5.00;;
70320;SDS011;61127;55.826;37.046;2023-06-22T04:19:19;10.70;;;4.78;;
70320;SDS011;61127;55.826;37.046;2023-06-22T04:21:46;11.77;;;5.03;;
70320;SDS011;61127;55.826;37.046;2023-06-22T04:24:14;8.82;;;4.45;;
70320;SDS011;61127;55.826;37.046;2023-06-22T04:26:40;9.55;;;4.65;;
70320;SDS011;61127;55.826;37.046;2023-06-22T04:29:11;7.57;;;4.22;;
70320;SDS011;61127;55.826;37.046;2023-06-22T04:31:37;10.30;;;4.70;;
70320;SDS011;61127;55.826;37.046;2023-06-22T04:34:04;7.17;;;4.13;;
70320;SDS011;61127;55.826;37.046;2023-06-22T04:36:36;11.13;;;4.82;;
70320;SDS011;61127;55.826;37.046;2023-06-22T04:39:07;8.18;;;4.60;;
70320;SDS011;61127;55.826;37.046;2023-06-22T04:41:36;8.43;;;4.38;;
70320;SDS011;61127;55.826;37.046;2023-06-22T04:44:09;8.10;;;4.30;;
70320;SDS011;61127;55.826;37.046;2023-06-22T04:46:38;7.37;;;4.33;;
70320;SDS011;61127;55.826;37.046;2023-06-22T04:49:05;9.02;;;4.18;;
70320;SDS011;61127;55.826;37.046;2023-06-22T04:51:39;8.70;;;4.15;;
70320;SDS011;61127;55.826;37.046;2023-06-22T04:54:06;7.32;;;4.00;;
70320;SDS011;61127;55.826;37.046;2023-06-22T04:56:32;8.07;;;4.30;;
70320;SDS011;61127;55.826;37.046;2023-06-22T04:58:59;7.43;;;4.30;;
70320;SDS011;61127;55.826;37.046;2023-06-22T05:01:25;9.80;;;3.95;;
70320;SDS011;61127;55.826;37.046;2023-06-22T05:03:51;8.18;;;4.32;;
70320;SDS011;61127;55.826;37.046;2023-06-22T05:06:23;9.85;;;4.00;;
70320;SDS011;61127;55.826;37.046;2023-06-22T05:08:54;8.75;;;3.97;;
70320;SDS011;61127;55.826;37.046;2023-06-22T05:11:26;7.47;;;3.43;;
70320;SDS011;61127;55.826;37.046;2023-06-22T05:13:53;7.35;;;3.42;;
70320;SDS011;61127;55.826;37.046;2023-06-22T05:16:19;6.50;;;3.50;;
70320;SDS011;61127;55.826;37.046;2023-06-22T05:18:51;6.38;;;3.40;;
70320;SDS011;61127;55.826;37.046;2023-06-22T05:21:18;6.25;;;3.30;;
70320;SDS011;61127;55.826;37.046;2023-06-22T05:23:47;5.60;;;3.17;;
70320;SDS011;61127;55.826;37.046;2023-06-22T05:26:13;6.88;;;3.20;;
70320;SDS011;61127;55.826;37.046;2023-06-22T05:28:39;5.88;;;3.35;;
70320;SDS011;61127;55.826;37.046;2023-06-22T05:31:05;7.32;;;3.10;;
70320;SDS011;61127;55.826;37.046;2023-06-22T05:33:31;5.87;;;2.90;;
70320;SDS011;61127;55.826;37.046;2023-06-22T05:35:57;5.97;;;3.13;;
70320;SDS011;61127;55.826;37.046;2023-06-22T05:38:23;6.28;;;3.42;;
70320;SDS011;61127;55.826;37.046;2023-06-22T05:40:49;6.38;;;2.83;;
70320;SDS011;61127;55.826;37.046;2023-06-22T05:43:16;8.70;;;3.27;;
70320;SDS011;61127;55.826;37.046;2023-06-22T05:45:42;5.63;;;3.53;;
70320;SDS011;61127;55.826;37.046;2023-06-22T05:48:08;6.25;;;3.42;;
70320;SDS011;61127;55.826;37.046;2023-06-22T05:50:34;5.07;;;3.15;;
70320;SDS011;61127;55.826;37.046;2023-06-22T05:53:00;6.63;;;2.93;;
70320;SDS011;61127;55.826;37.046;2023-06-22T05:55:26;5.95;;;3.10;;
70320;SDS011;61127;55.826;37.046;2023-06-22T05:57:52;5.65;;;3.13;;
70320;SDS011;61127;55.826;37.046;2023-06-22T06:00:18;5.15;;;3.10;;
70320;SDS011;61127;55.826;37.046;2023-06-22T06:02:44;6.13;;;3.10;;
70320;SDS011;61127;55.826;37.046;2023-06-22T06:05:11;7.75;;;3.35;;
70320;SDS011;61127;55.826;37.046;2023-06-22T06:07:41;5.10;;;3.25;;
70320;SDS011;61127;55.826;37.046;2023-06-22T06:10:07;6.50;;;3.40;;
70320;SDS011;61127;55.826;37.046;2023-06-22T06:12:34;9.10;;;3.08;;
70320;SDS011;61127;55.826;37.046;2023-06-22T06:15:00;3.97;;;3.00;;
70320;SDS011;61127;55.826;37.046;2023-06-22T06:17:29;4.97;;;3.03;;
70320;SDS011;61127;55.826;37.046;2023-06-22T06:19:56;5.22;;;2.72;;
70320;SDS011;61127;55.826;37.046;2023-06-22T06:22:22;7.10;;;3.05;;
70320;SDS011;61127;55.826;37.046;2023-06-22T06:24:49;6.90;;;3.28;;
70320;SDS011;61127;55.826;37.046;2023-06-22T06:27:15;5.37;;;2.93;;
70320;SDS011;61127;55.826;37.046;2023-06-22T06:29:43;7.20;;;2.90;;
70320;SDS011;61127;55.826;37.046;2023-06-22T06:32:13;6.22;;;3.33;;
70320;SDS011;61127;55.826;37.046;2023-06-22T06:34:39;5.55;;;3.15;;
70320;SDS011;61127;55.826;37.046;2023-06-22T06:37:05;4.32;;;3.00;;
70320;SDS011;61127;55.826;37.046;2023-06-22T06:39:31;4.70;;;3.00;;
70320;SDS011;61127;55.826;37.046;2023-06-22T06:41:57;4.10;;;3.10;;
70320;SDS011;61127;55.826;37.046;2023-06-22T06:44:23;4.32;;;3.00;;
70320;SDS011;61127;55.826;37.046;2023-06-22T06:46:49;4.57;;;3.17;;
70320;SDS011;61127;55.826;37.046;2023-06-22T06:49:15;3.93;;;2.90;;
70320;SDS011;61127;55.826;37.046;2023-06-22T06:51:45;5.45;;;3.10;;
70320;SDS011;61127;55.826;37.046;2023-06-22T06:54:11;5.30;;;3.25;;
70320;SDS011;61127;55.826;37.046;2023-06-22T06:56:37;5.05;;;2.90;;
70320;SDS011;61127;55.826;37.046;2023-06-22T06:59:03;5.77;;;3.20;;
70320;SDS011;61127;55.826;37.046;2023-06-22T07:01:29;4.78;;;3.20;;
70320;SDS011;61127;55.826;37.046;2023-06-22T07:03:59;4.50;;;3.20;;
70320;SDS011;61127;55.826;37.046;2023-06-22T07:06:26;7.30;;;3.38;;
70320;SDS011;61127;55.826;37.046;2023-06-22T07:08:55;6.50;;;3.42;;
70320;SDS011;61127;55.826;37.046;2023-06-22T07:11:21;8.10;;;2.90;;
70320;SDS011;61127;55.826;37.046;2023-06-22T07:13:47;4.70;;;3.40;;
70320;SDS011;61127;55.826;37.046;2023-06-22T07:16:13;5.47;;;3.15;;
70320;SDS011;61127;55.826;37.046;2023-06-22T07:18:39;5.60;;;3.30;;
70320;SDS011;61127;55.826;37.046;2023-06-22T07:21:06;5.45;;;3.30;;
70320;SDS011;61127;55.826;37.046;2023-06-22T07:23:32;6.15;;;3.50;;
70320;SDS011;61127;55.826;37.046;2023-06-22T07:25:59;5.25;;;3.30;;
70320;SDS011;61127;55.826;37.046;2023-06-22T07:28:27;4.55;;;3.28;;
70320;SDS011;61127;55.826;37.046;2023-06-22T07:30:57;4.57;;;3.43;;
70320;SDS011;61127;55.826;37.046;2023-06-22T07:33:22;5.82;;;3.08;;
70320;SDS011;61127;55.826;37.046;2023-06-22T07:35:49;6.50;;;3.40;;
70320;SDS011;61127;55.826;37.046;2023-06-22T07:38:17;7.38;;;3.10;;
70320;SDS011;61127;55.826;37.046;2023-06-22T07:40:43;9.15;;;3.50;;
70320;SDS011;61127;55.826;37.046;2023-06-22T07:43:09;5.73;;;3.30;;
70320;SDS011;61127;55.826;37.046;2023-06-22T07:45:37;4.82;;;3.20;;
70320;SDS011;61127;55.826;37.046;2023-06-22T07:48:06;6.38;;;3.63;;
70320;SDS011;61127;55.826;37.046;2023-06-22T07:50:32;7.05;;;3.38;;
70320;SDS011;61127;55.826;37.046;2023-06-22T07:52:59;4.50;;;3.47;;
70320;SDS011;61127;55.826;37.046;2023-06-22T07:55:24;6.60;;;3.30;;
70320;SDS011;61127;55.826;37.046;2023-06-22T07:57:50;6.35;;;3.22;;
70320;SDS011;61127;55.826;37.046;2023-06-22T08:00:17;6.57;;;3.50;;
70320;SDS011;61127;55.826;37.046;2023-06-22T08:02:46;7.77;;;3.37;;
70320;SDS011;61127;55.826;37.046;2023-06-22T08:05:13;4.85;;;3.28;;
70320;SDS011;61127;55.826;37.046;2023-06-22T08:07:40;6.53;;;3.50;;
70320;SDS011;61127;55.826;37.046;2023-06-22T08:10:08;7.28;;;3.80;;
70320;SDS011;61127;55.826;37.046;2023-06-22T08:12:36;5.38;;;3.78;;
70320;SDS011;61127;55.826;37.046;2023-06-22T08:15:02;6.20;;;3.60;;
70320;SDS011;61127;55.826;37.046;2023-06-22T08:17:31;5.75;;;3.58;;
70320;SDS011;61127;55.826;37.046;2023-06-22T08:19:57;6.38;;;3.83;;
70320;SDS011;61127;55.826;37.046;2023-06-22T08:22:23;5.90;;;3.58;;
70320;SDS011;61127;55.826;37.046;2023-06-22T08:24:50;5.80;;;3.55;;
70320;SDS011;61127;55.826;37.046;2023-06-22T08:27:17;9.37;;;3.97;;
70320;SDS011;61127;55.826;37.046;2023-06-22T08:29:46;5.15;;;3.47;;
70320;SDS011;61127;55.826;37.046;2023-06-22T08:32:12;7.88;;;4.13;;
70320;SDS011;61127;55.826;37.046;2023-06-22T08:34:38;7.10;;;3.80;;
70320;SDS011;61127;55.826;37.046;2023-06-22T08:37:08;5.10;;;3.70;;
70320;SDS011;61127;55.826;37.046;2023-06-22T08:39:35;8.27;;;3.80;;
70320;SDS011;61127;55.826;37.046;2023-06-22T08:42:00;7.45;;;4.25;;
70320;SDS011;61127;55.826;37.046;2023-06-22T08:44:27;6.22;;;4.10;;
70320;SDS011;61127;55.826;37.046;2023-06-22T08:46:53;6.77;;;4.10;;
70320;SDS011;61127;55.826;37.046;2023-06-22T08:49:19;6.57;;;3.60;;
70320;SDS011;61127;55.826;37.046;2023-06-22T08:51:45;5.47;;;4.00;;
70320;SDS011;61127;55.826;37.046;2023-06-22T08:54:13;6.20;;;3.97;;
70320;SDS011;61127;55.826;37.046;2023-06-22T08:56:39;6.60;;;4.00;;
70320;SDS011;61127;55.826;37.046;2023-06-22T08:59:05;7.20;;;4.00;;
70320;SDS011;61127;55.826;37.046;2023-06-22T09:01:33;4.30;;;3.80;;
70320;SDS011;61127;55.826;37.046;2023-06-22T09:03:59;6.60;;;4.30;;
70320;SDS011;61127;55.826;37.046;2023-06-22T09:06:25;7.45;;;4.65;;
70320;SDS011;61127;55.826;37.046;2023-06-22T09:08:51;6.03;;;4.60;;
70320;SDS011;61127;55.826;37.046;2023-06-22T09:11:17;5.72;;;4.30;;
70320;SDS011;61127;55.826;37.046;2023-06-22T09:13:44;4.95;;;4.38;;
70320;SDS011;61127;55.826;37.046;2023-06-22T09:16:09;5.22;;;4.30;;
70320;SDS011;61127;55.826;37.046;2023-06-22T09:18:37;5.57;;;4.40;;
70320;SDS011;61127;55.826;37.046;2023-06-22T09:21:03;5.00;;;4.20;;
70320;SDS011;61127;55.826;37.046;2023-06-22T09:23:29;7.88;;;4.80;;
70320;SDS011;61127;55.826;37.046;2023-06-22T09:25:55;6.30;;;4.25;;
70320;SDS011;61127;55.826;37.046;2023-06-22T09:28:20;5.87;;;4.30;;
70320;SDS011;61127;55.826;37.046;2023-06-22T09:30:46;4.93;;;4.30;;
70320;SDS011;61127;55.826;37.046;2023-06-22T09:33:12;6.28;;;4.28;;
70320;SDS011;61127;55.826;37.046;2023-06-22T09:35:38;6.32;;;4.82;;
70320;SDS011;61127;55.826;37.046;2023-06-22T09:38:04;5.30;;;3.80;;
70320;SDS011;61127;55.826;37.046;2023-06-22T09:40:30;4.65;;;4.03;;
70320;SDS011;61127;55.826;37.046;2023-06-22T09:42:58;5.07;;;4.47;;
70320;SDS011;61127;55.826;37.046;2023-06-22T09:45:24;4.73;;;4.23;;
70320;SDS011;61127;55.826;37.046;2023-06-22T09:47:49;6.63;;;4.50;;
70320;SDS011;61127;55.826;37.046;2023-06-22T09:50:15;5.28;;;4.75;;
70320;SDS011;61127;55.826;37.046;2023-06-22T09:52:41;5.40;;;4.90;;
70320;SDS011;61127;55.826;37.046;2023-06-22T09:55:10;5.75;;;5.10;;
70320;SDS011;61127;55.826;37.046;2023-06-22T09:57:36;5.40;;;4.90;;
70320;SDS011;61127;55.826;37.046;2023-06-22T10:00:01;7.38;;;4.43;;
70320;SDS011;61127;55.826;37.046;2023-06-22T10:02:31;6.33;;;4.50;;
70320;SDS011;61127;55.826;37.046;2023-06-22T10:04:57;4.82;;;4.20;;
70320;SDS011;61127;55.826;37.046;2023-06-22T10:07:23;6.30;;;5.00;;
70320;SDS011;61127;55.826;37.046;2023-06-22T10:09:48;6.20;;;5.50;;
70320;SDS011;61127;55.826;37.046;2023-06-22T10:12:14;5.38;;;4.75;;
70320;SDS011;61127;55.826;37.046;2023-06-22T10:14:40;6.55;;;5.00;;
70320;SDS011;61127;55.826;37.046;2023-06-22T10:17:06;6.28;;;4.43;;
70320;SDS011;61127;55.826;37.046;2023-06-22T10:19:33;5.57;;;4.70;;
70320;SDS011;61127;55.826;37.046;2023-06-22T10:21:58;5.35;;;4.85;;
70320;SDS011;61127;55.826;37.046;2023-06-22T10:24:24;7.90;;;4.72;;
70320;SDS011;61127;55.826;37.046;2023-06-22T10:26:50;5.73;;;5.13;;
70320;SDS011;61127;55.826;37.046;2023-06-22T10:29:16;5.63;;;4.88;;
70320;SDS011;61127;55.826;37.046;2023-06-22T10:31:42;7.00;;;5.00;;
70320;SDS011;61127;55.826;37.046;2023-06-22T10:34:09;7.05;;;5.30;;
70320;SDS011;61127;55.826;37.046;2023-06-22T10:36:35;7.03;;;5.20;;
70320;SDS011;61127;55.826;37.046;2023-06-22T10:39:00;9.85;;;5.50;;
70320;SDS011;61127;55.826;37.046;2023-06-22T10:41:28;6.05;;;5.45;;
70320;SDS011;61127;55.826;37.046;2023-06-22T10:43:55;5.90;;;5.30;;
70320;SDS011;61127;55.826;37.046;2023-06-22T10:46:23;5.68;;;5.13;;
70320;SDS011;61127;55.826;37.046;2023-06-22T10:48:51;5.88;;;5.30;;
70320;SDS011;61127;55.826;37.046;2023-06-22T10:51:20;6.38;;;5.78;;
70320;SDS011;61127;55.826;37.046;2023-06-22T10:53:46;14.13;;;11.40;;
70320;SDS011;61127;55.826;37.046;2023-06-22T10:56:12;6.90;;;6.10;;
70320;SDS011;61127;55.826;37.046;2023-06-22T10:58:38;6.35;;;5.75;;
70320;SDS011;61127;55.826;37.046;2023-06-22T11:01:04;7.25;;;5.72;;
70320;SDS011;61127;55.826;37.046;2023-06-22T11:03:30;6.53;;;5.90;;
70320;SDS011;61127;55.826;37.046;2023-06-22T11:05:56;7.60;;;5.88;;
70320;SDS011;61127;55.826;37.046;2023-06-22T11:08:22;6.13;;;5.63;;
70320;SDS011;61127;55.826;37.046;2023-06-22T11:10:48;7.78;;;6.50;;
70320;SDS011;61127;55.826;37.046;2023-06-22T11:13:16;7.10;;;6.50;;
70320;SDS011;61127;55.826;37.046;2023-06-22T11:15:42;6.85;;;6.30;;
70320;SDS011;61127;55.826;37.046;2023-06-22T11:18:08;7.22;;;6.60;;
70320;SDS011;61127;55.826;37.046;2023-06-22T11:20:34;7.45;;;6.75;;
70320;SDS011;61127;55.826;37.046;2023-06-22T11:23:04;6.32;;;5.50;;
70320;SDS011;61127;55.826;37.046;2023-06-22T11:25:34;6.75;;;6.15;;
70320;SDS011;61127;55.826;37.046;2023-06-22T11:28:03;6.63;;;6.03;;
70320;SDS011;61127;55.826;37.046;2023-06-22T11:30:30;7.03;;;6.43;;
70320;SDS011;61127;55.826;37.046;2023-06-22T11:32:57;7.43;;;6.70;;
70320;SDS011;61127;55.826;37.046;2023-06-22T11:35:24;11.43;;;8.07;;
70320;SDS011;61127;55.826;37.046;2023-06-22T11:37:50;9.25;;;8.45;;
70320;SDS011;61127;55.826;37.046;2023-06-22T11:40:16;8.30;;;5.83;;
70320;SDS011;61127;55.826;37.046;2023-06-22T11:42:43;6.40;;;5.63;;
70320;SDS011;61127;55.826;37.046;2023-06-22T11:45:09;6.57;;;6.00;;
70320;SDS011;61127;55.826;37.046;2023-06-22T11:47:35;7.00;;;6.40;;
70320;SDS011;61127;55.826;37.046;2023-06-22T11:50:02;7.18;;;6.40;;
70320;SDS011;61127;55.826;37.046;2023-06-22T11:52:29;12.07;;;7.20;;
70320;SDS011;61127;55.826;37.046;2023-06-22T11:54:55;6.00;;;5.50;;
70320;SDS011;61127;55.826;37.046;2023-06-22T11:57:21;5.93;;;4.90;;
70320;SDS011;61127;55.826;37.046;2023-06-22T11:59:47;7.63;;;5.95;;
70320;SDS011;61127;55.826;37.046;2023-06-22T12:02:16;6.33;;;5.73;;
70320;SDS011;61127;55.826;37.046;2023-06-22T12:04:42;7.15;;;6.40;;
70320;SDS011;61127;55.826;37.046;2023-06-22T12:07:07;7.63;;;6.47;;
70320;SDS011;61127;55.826;37.046;2023-06-22T12:09:34;8.10;;;7.30;;
70320;SDS011;61127;55.826;37.046;2023-06-22T12:11:59;8.60;;;7.82;;
70320;SDS011;61127;55.826;37.046;2023-06-22T12:14:25;7.03;;;6.43;;
70320;SDS011;61127;55.826;37.046;2023-06-22T12:16:51;6.93;;;5.67;;
70320;SDS011;61127;55.826;37.046;2023-06-22T12:19:17;5.47;;;4.85;;
70320;SDS011;61127;55.826;37.046;2023-06-22T12:21:43;7.10;;;5.97;;
70320;SDS011;61127;55.826;37.046;2023-06-22T12:24:11;7.63;;;6.65;;
70320;SDS011;61127;55.826;37.046;2023-06-22T12:26:37;9.47;;;6.83;;
70320;SDS011;61127;55.826;37.046;2023-06-22T12:29:03;7.82;;;6.13;;
70320;SDS011;61127;55.826;37.046;2023-06-22T12:31:30;7.25;;;6.65;;
70320;SDS011;61127;55.826;37.046;2023-06-22T12:33:56;7.87;;;7.17;;
70320;SDS011;61127;55.826;37.046;2023-06-22T12:36:22;8.52;;;7.15;;
70320;SDS011;61127;55.826;37.046;2023-06-22T12:38:48;7.35;;;6.65;;
70320;SDS011;61127;55.826;37.046;2023-06-22T12:41:13;6.72;;;6.13;;
70320;SDS011;61127;55.826;37.046;2023-06-22T12:43:40;9.63;;;6.60;;
70320;SDS011;61127;55.826;37.046;2023-06-22T12:46:06;7.88;;;7.15;;
70320;SDS011;61127;55.826;37.046;2023-06-22T12:48:32;8.63;;;7.00;;
70320;SDS011;61127;55.826;37.046;2023-06-22T12:50:58;8.90;;;5.97;;
70320;SDS011;61127;55.826;37.046;2023-06-22T12:53:24;7.43;;;6.60;;
70320;SDS011;61127;55.826;37.046;2023-06-22T12:55:52;8.38;;;6.78;;
70320;SDS011;61127;55.826;37.046;2023-06-22T12:58:18;8.15;;;6.65;;
70320;SDS011;61127;55.826;37.046;2023-06-22T13:00:45;7.55;;;6.78;;
70320;SDS011;61127;55.826;37.046;2023-06-22T13:03:11;7.80;;;7.05;;
70320;SDS011;61127;55.826;37.046;2023-06-22T13:05:36;11.23;;;8.15;;
70320;SDS011;61127;55.826;37.046;2023-06-22T13:08:03;7.57;;;6.43;;
70320;SDS011;61127;55.826;37.046;2023-06-22T13:10:29;8.02;;;6.70;;
70320;SDS011;61127;55.826;37.046;2023-06-22T13:12:55;6.63;;;6.03;;
70320;SDS011;61127;55.826;37.046;2023-06-22T13:15:28;6.20;;;5.50;;
70320;SDS011;61127;55.826;37.046;2023-06-22T13:17:55;5.78;;;5.18;;
70320;SDS011;61127;55.826;37.046;2023-06-22T13:20:21;5.50;;;4.63;;
70320;SDS011;61127;55.826;37.046;2023-06-22T13:22:47;7.80;;;4.80;;
70320;SDS011;61127;55.826;37.046;2023-06-22T13:25:13;5.75;;;5.13;;
70320;SDS011;61127;55.826;37.046;2023-06-22T13:27:45;7.60;;;5.13;;
70320;SDS011;61127;55.826;37.046;2023-06-22T13:30:11;7.45;;;5.68;;
70320;SDS011;61127;55.826;37.046;2023-06-22T13:32:37;5.77;;;4.63;;
70320;SDS011;61127;55.826;37.046;2023-06-22T13:35:03;6.32;;;4.70;;
70320;SDS011;61127;55.826;37.046;2023-06-22T13:37:30;7.75;;;5.50;;
70320;SDS011;61127;55.826;37.046;2023-06-22T13:39:56;5.25;;;4.43;;
70320;SDS011;61127;55.826;37.046;2023-06-22T13:42:25;7.03;;;5.55;;
70320;SDS011;61127;55.826;37.046;2023-06-22T13:44:50;6.80;;;4.77;;
70320;SDS011;61127;55.826;37.046;2023-06-22T13:47:17;6.63;;;4.65;;
70320;SDS011;61127;55.826;37.046;2023-06-22T13:49:43;5.60;;;4.93;;
70320;SDS011;61127;55.826;37.046;2023-06-22T13:52:09;6.35;;;4.80;;
70320;SDS011;61127;55.826;37.046;2023-06-22T13:54:36;6.33;;;4.80;;
70320;SDS011;61127;55.826;37.046;2023-06-22T13:57:02;7.10;;;4.72;;
70320;SDS011;61127;55.826;37.046;2023-06-22T13:59:28;8.70;;;4.75;;
70320;SDS011;61127;55.826;37.046;2023-06-22T14:01:54;5.85;;;4.70;;
70320;SDS011;61127;55.826;37.046;2023-06-22T14:04:21;7.13;;;4.70;;
70320;SDS011;61127;55.826;37.046;2023-06-22T14:06:48;6.00;;;4.55;;
70320;SDS011;61127;55.826;37.046;2023-06-22T14:09:14;6.75;;;4.75;;
70320;SDS011;61127;55.826;37.046;2023-06-22T14:11:40;7.85;;;5.35;;
70320;SDS011;61127;55.826;37.046;2023-06-22T14:14:06;7.68;;;4.63;;
70320;SDS011;61127;55.826;37.046;2023-06-22T14:16:32;10.17;;;4.97;;
70320;SDS011;61127;55.826;37.046;2023-06-22T14:18:58;6.25;;;4.80;;
70320;SDS011;61127;55.826;37.046;2023-06-22T14:21:25;7.10;;;4.75;;
70320;SDS011;61127;55.826;37.046;2023-06-22T14:23:51;6.88;;;4.60;;
70320;SDS011;61127;55.826;37.046;2023-06-22T14:26:17;8.23;;;5.30;;
70320;SDS011;61127;55.826;37.046;2023-06-22T14:28:47;8.75;;;5.88;;
70320;SDS011;61127;55.826;37.046;2023-06-22T14:31:18;7.57;;;5.38;;
70320;SDS011;61127;55.826;37.046;2023-06-22T14:33:48;7.78;;;4.80;;
70320;SDS011;61127;55.826;37.046;2023-06-22T14:36:15;8.25;;;6.70;;
70320;SDS011;61127;55.826;37.046;2023-06-22T14:38:45;10.33;;;5.70;;
70320;SDS011;61127;55.826;37.046;2023-06-22T14:41:11;8.45;;;6.10;;